Time;durP1;ratioP1;P1;durP2;ratioP2;P2;SDS_P1;SDS_P2;PMS_P1;PMS_P2;Temp;Humidity;BMP_temperature;BMP_pressure;BME280_temperature;BME280_humidity;BME280_pressure;Samples;Min_cycle;Max_cycle;Signal;HPM_P1;HPM_P2
2024/03/18 00:01:49;;;;;;;6.53;4.22;;;;;;;;;;5046662;28;20028;-79
2024/03/18 00:04:15;;;;;;;6.07;4.97;;;;;;;;;;5029039;28;20031;-79
2024/03/18 00:06:40;;;;;;;6.30;4.85;;;;;;;;;;5046638;28;20029;-77
2024/03/18 00:09:07;;;;;;;6.70;5.35;;;;;;;;;;5046279;28;20030;-77
2024/03/18 00:11:32;;;;;;;6.47;4.13;;;;;;;;;;5028920;28;20026;-77
2024/03/18 00:13:58;;;;;;;6.57;5.25;;;;;;;;;;5027272;28;20471;-77
2024/03/18 00:16:23;;;;;;;6.70;5.13;;;;;;;;;;5030406;28;20029;-77
2024/03/18 00:18:49;;;;;;;6.63;4.97;;;;;;;;;;5046130;28;20364;-77
2024/03/18 00:21:14;;;;;;;7.63;5.22;;;;;;;;;;5042425;28;20033;-77
2024/03/18 00:23:39;;;;;;;8.95;5.15;;;;;;;;;;5046372;28;20040;-77
2024/03/18 00:26:05;;;;;;;7.93;5.13;;;;;;;;;;5044650;28;20059;-77
2024/03/18 00:28:31;;;;;;;6.15;5.20;;;;;;;;;;5033223;28;20029;-77
2024/03/18 00:30:57;;;;;;;7.45;5.60;;;;;;;;;;5043395;28;20028;-77
2024/03/18 00:33:22;;;;;;;7.65;5.25;;;;;;;;;;5045131;28;20486;-77
2024/03/18 00:35:55;;;;;;;9.00;5.40;;;;;;;;;;5044526;28;20029;-77
2024/03/18 00:38:21;;;;;;;7.57;5.85;;;;;;;;;;5026388;28;21321;-76
2024/03/18 00:40:46;;;;;;;7.00;5.10;;;;;;;;;;5029038;28;20043;-77
2024/03/18 00:43:12;;;;;;;7.95;6.13;;;;;;;;;;5043890;28;20021;-76
2024/03/18 00:45:37;;;;;;;7.40;5.72;;;;;;;;;;5025499;28;20402;-77
2024/03/18 00:48:04;;;;;;;8.35;5.60;;;;;;;;;;5043783;28;20079;-76
2024/03/18 00:50:29;;;;;;;8.23;6.07;;;;;;;;;;5029010;28;20082;-77
2024/03/18 00:52:55;;;;;;;7.22;5.28;;;;;;;;;;5027969;28;20036;-76
2024/03/18 00:55:20;;;;;;;8.88;7.00;;;;;;;;;;5025552;28;20029;-76
2024/03/18 00:57:46;;;;;;;7.13;5.38;;;;;;;;;;5024357;28;20509;-76
2024/03/18 01:00:12;;;;;;;7.53;5.22;;;;;;;;;;5044783;28;20028;-76
2024/03/18 01:02:39;;;;;;;7.93;5.85;;;;;;;;;;5026707;28;20410;-76
2024/03/18 01:05:06;;;;;;;8.02;5.90;;;;;;;;;;5044480;28;20107;-76
2024/03/18 01:07:32;;;;;;;6.70;5.25;;;;;;;;;;5027648;28;20279;-76
2024/03/18 01:09:57;;;;;;;7.15;5.43;;;;;;;;;;5044860;28;20035;-76
2024/03/18 01:12:23;;;;;;;7.28;5.43;;;;;;;;;;5044005;28;20033;-77
2024/03/18 01:14:48;;;;;;;7.75;5.47;;;;;;;;;;5029298;28;20486;-76
2024/03/18 01:17:13;;;;;;;7.65;6.35;;;;;;;;;;5044389;28;20052;-77
2024/03/18 01:19:40;;;;;;;7.28;5.68;;;;;;;;;;5023942;28;20027;-76
2024/03/18 01:22:05;;;;;;;8.50;6.22;;;;;;;;;;5040888;28;20020;-76
2024/03/18 01:24:32;;;;;;;8.50;6.50;;;;;;;;;;5029246;28;20047;-76
2024/03/18 01:26:58;;;;;;;6.88;5.35;;;;;;;;;;5043824;28;20049;-77
2024/03/18 01:29:24;;;;;;;9.73;7.55;;;;;;;;;;5044583;28;20120;-76
2024/03/18 01:31:49;;;;;;;7.00;6.07;;;;;;;;;;5025102;28;20128;-76
2024/03/18 01:34:15;;;;;;;10.30;7.47;;;;;;;;;;5025455;28;20437;-76
2024/03/18 01:36:41;;;;;;;11.77;7.80;;;;;;;;;;5028384;28;20116;-81
2024/03/18 01:39:06;;;;;;;10.88;7.28;;;;;;;;;;5025199;28;20064;-78
2024/03/18 01:41:32;;;;;;;9.30;6.72;;;;;;;;;;5042475;28;20120;-79
2024/03/18 01:43:57;;;;;;;8.10;5.97;;;;;;;;;;5044644;28;20039;-78
2024/03/18 01:46:22;;;;;;;9.93;7.30;;;;;;;;;;5043497;28;20766;-79
2024/03/18 01:48:48;;;;;;;10.00;6.47;;;;;;;;;;5043258;28;20044;-79
2024/03/18 01:51:14;;;;;;;12.52;8.80;;;;;;;;;;5045458;28;20090;-79
2024/03/18 01:53:41;;;;;;;11.02;7.75;;;;;;;;;;5042796;28;20029;-78
2024/03/18 01:56:11;;;;;;;12.25;9.05;;;;;;;;;;5043695;28;20526;-79
2024/03/18 01:58:40;;;;;;;11.30;7.72;;;;;;;;;;5043029;28;20478;-79
2024/03/18 02:01:08;;;;;;;10.23;8.25;;;;;;;;;;5070852;22;20512;-88
2024/03/18 02:03:35;;;;;;;10.95;7.80;;;;;;;;;;5066505;28;20036;-87
2024/03/18 02:06:00;;;;;;;11.13;8.07;;;;;;;;;;5066247;28;20028;-89
2024/03/18 02:08:26;;;;;;;15.80;9.23;;;;;;;;;;5066550;28;20036;-87
2024/03/18 02:10:54;;;;;;;9.98;7.78;;;;;;;;;;5071350;28;20108;-84
2024/03/18 02:13:20;;;;;;;8.30;6.20;;;;;;;;;;5071644;28;20359;-84
2024/03/18 02:15:45;;;;;;;8.52;6.72;;;;;;;;;;5074033;28;20035;-84
2024/03/18 02:18:10;;;;;;;11.90;8.40;;;;;;;;;;5073737;28;20059;-87
2024/03/18 02:20:36;;;;;;;11.27;8.32;;;;;;;;;;5067909;28;20035;-89
2024/03/18 02:23:02;;;;;;;9.90;8.05;;;;;;;;;;5070613;28;20024;-88
2024/03/18 02:25:27;;;;;;;10.07;7.70;;;;;;;;;;5067901;28;20029;-88
2024/03/18 02:27:53;;;;;;;11.98;9.00;;;;;;;;;;5067283;28;20032;-88
2024/03/18 02:30:18;;;;;;;9.25;7.28;;;;;;;;;;5062734;28;20028;-87
2024/03/18 02:32:43;;;;;;;10.50;7.90;;;;;;;;;;5068064;28;20632;-80
2024/03/18 02:35:16;;;;;;;11.82;8.68;;;;;;;;;;5063432;28;20122;-80
2024/03/18 02:37:42;;;;;;;9.73;7.35;;;;;;;;;;5064789;28;20120;-80
2024/03/18 02:40:08;;;;;;;9.63;7.40;;;;;;;;;;5081145;28;20037;-82
2024/03/18 02:42:37;;;;;;;11.63;7.65;;;;;;;;;;5084352;28;20389;-81
2024/03/18 02:45:09;;;;;;;11.35;8.63;;;;;;;;;;5083044;28;20028;-80
2024/03/18 02:47:37;;;;;;;12.48;7.97;;;;;;;;;;5082231;28;20035;-88
2024/03/18 02:50:03;;;;;;;11.60;9.20;;;;;;;;;;5070377;28;20031;-80
2024/03/18 02:52:30;;;;;;;9.27;6.80;;;;;;;;;;5068775;28;20466;-84
2024/03/18 02:54:55;;;;;;;9.50;6.75;;;;;;;;;;5077538;28;20024;-84
2024/03/18 02:57:21;;;;;;;8.23;6.47;;;;;;;;;;5070437;28;20032;-84
2024/03/18 02:59:47;;;;;;;10.52;8.02;;;;;;;;;;5071201;28;20033;-84
2024/03/18 03:02:12;;;;;;;8.52;6.85;;;;;;;;;;5069217;28;20028;-84
2024/03/18 03:04:37;;;;;;;8.95;6.90;;;;;;;;;;5069886;28;20028;-84
2024/03/18 03:07:03;;;;;;;10.32;7.30;;;;;;;;;;5085466;28;20087;-84
2024/03/18 03:09:28;;;;;;;8.57;6.80;;;;;;;;;;5085332;28;20503;-84
2024/03/18 03:11:54;;;;;;;11.30;8.18;;;;;;;;;;5083226;28;20115;-84
2024/03/18 03:14:19;;;;;;;11.43;8.05;;;;;;;;;;5088425;28;20406;-83
2024/03/18 03:16:45;;;;;;;11.07;7.25;;;;;;;;;;5070948;28;20028;-84
2024/03/18 03:19:13;;;;;;;9.57;7.20;;;;;;;;;;5069292;28;20525;-83
2024/03/18 03:21:40;;;;;;;11.02;8.10;;;;;;;;;;5073542;28;20031;-84
2024/03/18 03:24:05;;;;;;;11.50;8.80;;;;;;;;;;5074955;28;20027;-83
2024/03/18 03:26:31;;;;;;;9.15;7.43;;;;;;;;;;5075535;28;20028;-84
2024/03/18 03:28:57;;;;;;;10.32;7.55;;;;;;;;;;5077419;28;20153;-84
2024/03/18 03:31:22;;;;;;;12.20;8.15;;;;;;;;;;5074400;28;20111;-84
2024/03/18 03:33:48;;;;;;;10.13;7.82;;;;;;;;;;5072251;28;20626;-84
2024/03/18 03:36:20;;;;;;;11.27;8.18;;;;;;;;;;5068629;28;20032;-84
2024/03/18 03:38:47;;;;;;;10.93;7.80;;;;;;;;;;5072381;28;20051;-84
2024/03/18 03:41:13;;;;;;;10.18;7.57;;;;;;;;;;5095098;28;20028;-84
2024/03/18 03:43:39;;;;;;;11.68;7.50;;;;;;;;;;5082737;28;20391;-84
2024/03/18 03:46:06;;;;;;;11.38;8.00;;;;;;;;;;5085490;28;20035;-84
2024/03/18 03:48:32;;;;;;;9.48;7.40;;;;;;;;;;5073795;28;20031;-84
2024/03/18 03:50:57;;;;;;;10.98;7.65;;;;;;;;;;5067426;28;20397;-81
2024/03/18 03:53:27;;;;;;;10.45;7.55;;;;;;;;;;5061500;28;20119;-81
2024/03/18 03:55:56;;;;;;;10.40;7.70;;;;;;;;;;5072085;28;20508;-82
2024/03/18 03:58:22;;;;;;;10.93;6.80;;;;;;;;;;5082965;28;20024;-82
2024/03/18 04:00:49;;;;;;;10.30;7.53;;;;;;;;;;5068808;28;20024;-81
2024/03/18 04:03:17;;;;;;;10.45;7.97;;;;;;;;;;5067897;28;20226;-82
2024/03/18 04:05:42;;;;;;;12.43;7.03;;;;;;;;;;5085574;28;20102;-82
2024/03/18 04:08:07;;;;;;;14.43;9.32;;;;;;;;;;5067756;28;20114;-82
2024/03/18 04:10:33;;;;;;;11.20;8.30;;;;;;;;;;5073725;28;20032;-84
2024/03/18 04:12:59;;;;;;;11.75;7.85;;;;;;;;;;5088274;28;20091;-84
2024/03/18 04:15:26;;;;;;;12.35;8.75;;;;;;;;;;5073848;28;20046;-84
2024/03/18 04:17:52;;;;;;;10.75;7.93;;;;;;;;;;5068007;28;20032;-85
2024/03/18 04:20:21;;;;;;;10.50;8.00;;;;;;;;;;5085267;28;20028;-84
2024/03/18 04:22:55;;;;;;;11.32;8.18;;;;;;;;;;5083226;28;20028;-85
2024/03/18 04:25:23;;;;;;;10.23;8.00;;;;;;;;;;5060184;28;20035;-84
2024/03/18 04:27:48;;;;;;;12.15;7.95;;;;;;;;;;5068181;28;20020;-84
2024/03/18 04:30:19;;;;;;;12.13;8.75;;;;;;;;;;5086308;28;20773;-84
2024/03/18 04:32:48;;;;;;;13.73;9.52;;;;;;;;;;5082967;28;20539;-84
2024/03/18 04:35:14;;;;;;;10.43;7.43;;;;;;;;;;5064410;28;20028;-84
2024/03/18 04:37:45;;;;;;;12.20;8.75;;;;;;;;;;5084564;28;20038;-84
2024/03/18 04:40:15;;;;;;;12.82;8.38;;;;;;;;;;5083328;28;20119;-83
2024/03/18 04:42:40;;;;;;;11.75;8.40;;;;;;;;;;5068905;28;20020;-84
2024/03/18 04:45:07;;;;;;;10.15;7.72;;;;;;;;;;5082674;28;20020;-84
2024/03/18 04:47:39;;;;;;;12.50;8.60;;;;;;;;;;5085622;28;20763;-84
2024/03/18 04:50:10;;;;;;;9.30;6.53;;;;;;;;;;5061416;28;20027;-84
2024/03/18 04:52:36;;;;;;;12.45;8.70;;;;;;;;;;5066421;28;20031;-84
2024/03/18 04:55:05;;;;;;;10.75;8.50;;;;;;;;;;5068037;28;20170;-85
2024/03/18 04:57:32;;;;;;;12.88;9.45;;;;;;;;;;5068513;28;20486;-84
2024/03/18 04:59:58;;;;;;;12.18;8.55;;;;;;;;;;5060223;28;20023;-84
2024/03/18 05:02:23;;;;;;;11.90;8.35;;;;;;;;;;5062478;28;20040;-83
2024/03/18 05:04:49;;;;;;;12.50;9.50;;;;;;;;;;5065703;28;20023;-84
2024/03/18 05:07:15;;;;;;;13.88;10.40;;;;;;;;;;5065642;28;20032;-84
2024/03/18 05:09:44;;;;;;;12.10;9.15;;;;;;;;;;5085610;28;20449;-84
2024/03/18 05:12:10;;;;;;;13.13;10.00;;;;;;;;;;5065662;28;20035;-84
2024/03/18 05:14:35;;;;;;;10.85;7.93;;;;;;;;;;5084929;28;20028;-83
2024/03/18 05:17:01;;;;;;;12.90;8.95;;;;;;;;;;5064890;28;20054;-84
2024/03/18 05:19:26;;;;;;;9.38;7.10;;;;;;;;;;5069566;28;20036;-84
2024/03/18 05:21:51;;;;;;;14.18;9.45;;;;;;;;;;5087728;28;20028;-85
2024/03/18 05:24:17;;;;;;;13.07;8.80;;;;;;;;;;5073506;28;20123;-84
2024/03/18 05:26:42;;;;;;;15.30;10.65;;;;;;;;;;5088449;28;20084;-84
2024/03/18 05:29:08;;;;;;;14.32;9.50;;;;;;;;;;5072911;28;20030;-85
2024/03/18 05:31:33;;;;;;;14.90;10.30;;;;;;;;;;5092957;28;20479;-83
2024/03/18 05:34:01;;;;;;;14.30;9.43;;;;;;;;;;5064320;28;20459;-84
2024/03/18 05:36:30;;;;;;;13.32;8.93;;;;;;;;;;5089764;28;20020;-83
2024/03/18 05:38:56;;;;;;;12.13;8.27;;;;;;;;;;5085241;28;20494;-88
2024/03/18 05:41:24;;;;;;;12.10;8.63;;;;;;;;;;5068088;28;20024;-89
2024/03/18 05:43:50;;;;;;;13.45;8.32;;;;;;;;;;5072330;28;20016;-89
2024/03/18 05:46:17;;;;;;;11.65;7.95;;;;;;;;;;5062575;28;20026;-87
2024/03/18 05:48:43;;;;;;;14.43;8.63;;;;;;;;;;5066199;28;20077;-87
2024/03/18 05:51:08;;;;;;;13.43;8.32;;;;;;;;;;5070852;28;20028;-88
2024/03/18 05:53:34;;;;;;;12.13;8.75;;;;;;;;;;5085380;28;20032;-88
2024/03/18 05:56:06;;;;;;;12.68;8.23;;;;;;;;;;5067086;28;20024;-88
2024/03/18 05:58:39;;;;;;;15.07;9.45;;;;;;;;;;5068782;28;20675;-87
2024/03/18 06:01:10;;;;;;;14.32;8.90;;;;;;;;;;5081847;28;20020;-88
2024/03/18 06:03:40;;;;;;;12.48;8.80;;;;;;;;;;5072014;28;20027;-80
2024/03/18 06:06:07;;;;;;;13.05;8.23;;;;;;;;;;5085181;28;20360;-84
2024/03/18 06:08:33;;;;;;;13.40;8.38;;;;;;;;;;5060153;28;20020;-83
2024/03/18 06:10:59;;;;;;;13.07;8.50;;;;;;;;;;5091255;28;20031;-84
2024/03/18 06:13:25;;;;;;;14.05;9.07;;;;;;;;;;5087514;28;20020;-83
2024/03/18 06:15:50;;;;;;;14.85;9.07;;;;;;;;;;5084042;28;20026;-84
2024/03/18 06:18:16;;;;;;;16.75;9.98;;;;;;;;;;5089137;28;20110;-83
2024/03/18 06:20:48;;;;;;;16.67;9.98;;;;;;;;;;5070031;28;20152;-84
2024/03/18 06:23:16;;;;;;;19.00;10.25;;;;;;;;;;5064357;28;20025;-84
2024/03/18 06:28:42;;;;;;;14.32;9.05;;;;;;;;;;5055997;28;20063;-83
2024/03/18 06:31:08;;;;;;;13.63;9.65;;;;;;;;;;5092634;28;20474;-83
2024/03/18 06:33:33;;;;;;;16.35;9.95;;;;;;;;;;5083266;28;20028;-83
2024/03/18 06:36:01;;;;;;;15.25;9.57;;;;;;;;;;5091766;28;20073;-83
2024/03/18 06:38:26;;;;;;;14.40;9.20;;;;;;;;;;5085651;28;20048;-80
2024/03/18 06:40:55;;;;;;;17.30;9.45;;;;;;;;;;5067296;28;20062;-83
2024/03/18 06:43:20;;;;;;;15.10;9.20;;;;;;;;;;5096970;28;20020;-83
2024/03/18 06:45:46;;;;;;;13.02;8.68;;;;;;;;;;5072947;28;20041;-83
2024/03/18 06:48:11;;;;;;;15.32;9.77;;;;;;;;;;5075439;28;20388;-84
2024/03/18 06:50:39;;;;;;;16.77;10.18;;;;;;;;;;5060192;28;20031;-84
2024/03/18 06:53:05;;;;;;;16.48;9.98;;;;;;;;;;5096615;28;20047;-83
2024/03/18 06:55:31;;;;;;;17.45;9.85;;;;;;;;;;5081606;28;20657;-89
2024/03/18 06:57:57;;;;;;;12.88;8.32;;;;;;;;;;5095687;28;20027;-90
2024/03/18 07:00:25;;;;;;;14.82;9.23;;;;;;;;;;5093081;28;20024;-88
2024/03/18 07:02:52;;;;;;;17.33;10.48;;;;;;;;;;5089721;28;20165;-88
2024/03/18 07:05:18;;;;;;;17.98;9.52;;;;;;;;;;5092453;28;20028;-89
2024/03/18 07:07:44;;;;;;;16.20;9.88;;;;;;;;;;5075604;28;20157;-88
2024/03/18 07:10:11;;;;;;;16.63;10.10;;;;;;;;;;5071067;28;20103;-90
2024/03/18 07:12:41;;;;;;;16.65;9.90;;;;;;;;;;5075761;28;20027;-89
2024/03/18 07:15:07;;;;;;;16.70;10.27;;;;;;;;;;5087743;28;20093;-89
2024/03/18 07:17:36;;;;;;;15.63;9.32;;;;;;;;;;5090072;28;20028;-88
2024/03/18 07:20:08;;;;;;;17.77;9.60;;;;;;;;;;5082937;28;20027;-89
2024/03/18 07:22:34;;;;;;;18.33;11.15;;;;;;;;;;5096952;28;20107;-88
2024/03/18 07:24:59;;;;;;;14.45;8.30;;;;;;;;;;5069641;28;20441;-89
2024/03/18 07:27:25;;;;;;;18.33;10.43;;;;;;;;;;5073151;28;20059;-88
2024/03/18 07:29:55;;;;;;;16.65;9.82;;;;;;;;;;5077686;28;20463;-89
2024/03/18 07:32:21;;;;;;;18.52;11.13;;;;;;;;;;5069432;28;20032;-86
2024/03/18 07:34:47;;;;;;;18.20;10.75;;;;;;;;;;5070357;28;20474;-86
2024/03/18 07:37:12;;;;;;;21.13;10.80;;;;;;;;;;5087760;28;20475;-86
2024/03/18 07:39:40;;;;;;;17.95;10.80;;;;;;;;;;5069701;28;20056;-86
2024/03/18 07:42:06;;;;;;;19.00;11.10;;;;;;;;;;5070590;28;20024;-86
2024/03/18 07:44:31;;;;;;;18.95;11.25;;;;;;;;;;5059000;28;20038;-86
2024/03/18 07:46:57;;;;;;;19.02;11.80;;;;;;;;;;5070385;28;20031;-86
2024/03/18 07:49:22;;;;;;;18.73;12.00;;;;;;;;;;5082467;28;20036;-86
2024/03/18 07:51:48;;;;;;;23.17;12.68;;;;;;;;;;5073548;28;20043;-81
2024/03/18 07:54:14;;;;;;;18.52;11.70;;;;;;;;;;5075400;28;20020;-81
2024/03/18 07:56:40;;;;;;;21.08;12.15;;;;;;;;;;5092203;28;20479;-80
2024/03/18 07:59:06;;;;;;;20.33;11.98;;;;;;;;;;5072460;28;20035;-80
2024/03/18 08:01:32;;;;;;;22.08;12.88;;;;;;;;;;5066857;28;20075;-80
2024/03/18 08:03:57;;;;;;;21.52;12.63;;;;;;;;;;5063594;28;20071;-85
2024/03/18 08:06:23;;;;;;;21.15;13.40;;;;;;;;;;5059009;28;20040;-86
2024/03/18 08:08:48;;;;;;;24.05;13.18;;;;;;;;;;5069103;28;20028;-86
2024/03/18 08:11:14;;;;;;;21.42;12.90;;;;;;;;;;5075735;28;20027;-86
2024/03/18 08:13:39;;;;;;;20.52;12.30;;;;;;;;;;5094127;28;20401;-85
2024/03/18 08:16:05;;;;;;;23.38;13.38;;;;;;;;;;5090466;28;20114;-85
2024/03/18 08:18:31;;;;;;;24.85;13.32;;;;;;;;;;5087911;28;20059;-86
2024/03/18 08:20:56;;;;;;;25.25;14.65;;;;;;;;;;5077917;28;20047;-85
2024/03/18 08:23:22;;;;;;;21.90;13.50;;;;;;;;;;5066969;28;20064;-85
2024/03/18 08:25:47;;;;;;;25.15;13.93;;;;;;;;;;5068570;28;20427;-85
2024/03/18 08:28:15;;;;;;;26.75;14.35;;;;;;;;;;5071759;28;20032;-86
2024/03/18 08:30:41;;;;;;;22.20;13.65;;;;;;;;;;5094500;28;20032;-85
2024/03/18 08:33:07;;;;;;;26.08;13.60;;;;;;;;;;5069534;28;20103;-85
2024/03/18 08:35:32;;;;;;;22.38;12.60;;;;;;;;;;5068315;28;20028;-85
2024/03/18 08:37:58;;;;;;;20.65;12.10;;;;;;;;;;5076844;28;20032;-85
2024/03/18 08:40:24;;;;;;;20.50;11.88;;;;;;;;;;5074134;28;20042;-85
2024/03/18 08:42:50;;;;;;;23.63;12.85;;;;;;;;;;5075441;28;20020;-85
2024/03/18 08:45:16;;;;;;;23.23;11.63;;;;;;;;;;5089393;28;20022;-86
2024/03/18 08:47:41;;;;;;;25.17;11.55;;;;;;;;;;5067524;28;20032;-86
2024/03/18 08:50:07;;;;;;;20.17;10.98;;;;;;;;;;5072659;28;20384;-86
2024/03/18 08:52:32;;;;;;;19.10;10.63;;;;;;;;;;5072868;28;20069;-86
2024/03/18 08:54:58;;;;;;;18.38;10.60;;;;;;;;;;5091670;28;20036;-82
2024/03/18 08:57:23;;;;;;;23.65;10.88;;;;;;;;;;5085705;28;20025;-83
2024/03/18 08:59:49;;;;;;;21.83;10.95;;;;;;;;;;5060113;28;20028;-82
2024/03/18 09:02:14;;;;;;;21.08;11.30;;;;;;;;;;5086076;28;20089;-86
2024/03/18 09:04:40;;;;;;;19.02;10.32;;;;;;;;;;5073946;28;20482;-86
2024/03/18 09:07:06;;;;;;;17.52;9.82;;;;;;;;;;5091632;28;20028;-86
2024/03/18 09:09:36;;;;;;;21.15;10.65;;;;;;;;;;5060692;28;20115;-84
2024/03/18 09:12:02;;;;;;;16.60;10.60;;;;;;;;;;5065849;28;20030;-83
2024/03/18 09:14:29;;;;;;;19.98;10.55;;;;;;;;;;5074945;28;20027;-83
2024/03/18 09:16:54;;;;;;;17.05;10.40;;;;;;;;;;5076014;28;20396;-83
2024/03/18 09:19:20;;;;;;;21.15;12.23;;;;;;;;;;5075075;28;20027;-84
2024/03/18 09:21:47;;;;;;;22.73;12.02;;;;;;;;;;5083924;28;20036;-84
2024/03/18 09:24:14;;;;;;;21.02;12.52;;;;;;;;;;5062659;28;20111;-83
2024/03/18 09:26:40;;;;;;;30.50;13.48;;;;;;;;;;5056526;28;20029;-83
2024/03/18 09:29:07;;;;;;;23.45;12.43;;;;;;;;;;5075433;28;20036;-84
2024/03/18 09:31:32;;;;;;;18.52;11.05;;;;;;;;;;5058479;28;20031;-83
2024/03/18 09:33:58;;;;;;;20.50;10.82;;;;;;;;;;5076008;28;20027;-83
2024/03/18 09:36:23;;;;;;;17.38;9.50;;;;;;;;;;5076375;28;20104;-84
2024/03/18 09:38:49;;;;;;;19.08;10.27;;;;;;;;;;5075726;28;20028;-83
2024/03/18 09:41:19;;;;;;;23.90;11.02;;;;;;;;;;5091820;28;20064;-84
2024/03/18 09:43:46;;;;;;;16.55;10.18;;;;;;;;;;5073816;28;20471;-83
2024/03/18 09:46:14;;;;;;;18.88;10.77;;;;;;;;;;5059512;28;20022;-83
2024/03/18 09:48:40;;;;;;;21.55;10.50;;;;;;;;;;5093007;28;20031;-83
2024/03/18 09:51:16;;;;;;;21.13;11.05;;;;;;;;;;5070325;28;20028;-84
2024/03/18 09:53:46;;;;;;;21.42;10.88;;;;;;;;;;5075272;28;20020;-83
2024/03/18 09:56:18;;;;;;;17.25;10.05;;;;;;;;;;5074587;28;20028;-84
2024/03/18 09:58:44;;;;;;;23.40;9.93;;;;;;;;;;5075118;28;20484;-83
2024/03/18 10:01:12;;;;;;;19.40;9.80;;;;;;;;;;5074891;28;20118;-83
2024/03/18 10:03:42;;;;;;;19.23;9.98;;;;;;;;;;5092395;28;20028;-84
2024/03/18 10:06:11;;;;;;;21.27;9.85;;;;;;;;;;5075446;28;20023;-83
2024/03/18 10:08:39;;;;;;;19.70;10.07;;;;;;;;;;5093107;28;20506;-83
2024/03/18 10:11:07;;;;;;;19.85;8.82;;;;;;;;;;5092963;28;20016;-83
2024/03/18 10:13:33;;;;;;;16.90;8.63;;;;;;;;;;5073032;28;20012;-83
2024/03/18 10:15:59;;;;;;;16.15;7.57;;;;;;;;;;5075022;28;20031;-84
2024/03/18 10:18:28;;;;;;;18.65;8.88;;;;;;;;;;5074963;28;20386;-83
2024/03/18 10:20:54;;;;;;;17.38;8.43;;;;;;;;;;5093105;28;20145;-83
2024/03/18 10:23:20;;;;;;;24.58;10.18;;;;;;;;;;5074732;28;20054;-83
2024/03/18 10:25:45;;;;;;;21.63;8.68;;;;;;;;;;5084780;28;20040;-83
2024/03/18 10:28:12;;;;;;;19.95;9.45;;;;;;;;;;5058027;28;20468;-80
2024/03/18 10:30:38;;;;;;;19.33;9.30;;;;;;;;;;5060877;28;20111;-83
2024/03/18 10:33:11;;;;;;;21.83;9.65;;;;;;;;;;5058354;28;20605;-83
2024/03/18 10:35:39;;;;;;;20.30;8.90;;;;;;;;;;5059976;28;20109;-83
2024/03/18 10:38:06;;;;;;;20.92;9.25;;;;;;;;;;5061489;28;20031;-84
2024/03/18 10:40:38;;;;;;;18.70;7.93;;;;;;;;;;5090749;28;20487;-83
2024/03/18 10:43:11;;;;;;;18.98;8.50;;;;;;;;;;5073199;28;20050;-83
2024/03/18 10:45:47;;;;;;;18.40;7.93;;;;;;;;;;5057295;28;20468;-83
2024/03/18 10:48:16;;;;;;;15.68;7.00;;;;;;;;;;5071515;28;20028;-83
2024/03/18 10:50:44;;;;;;;18.20;7.82;;;;;;;;;;5067368;28;20433;-84
2024/03/18 10:53:21;;;;;;;19.52;8.52;;;;;;;;;;5066662;28;20021;-83
2024/03/18 10:55:53;;;;;;;21.42;8.82;;;;;;;;;;5065837;28;20052;-83
2024/03/18 10:58:25;;;;;;;20.27;9.15;;;;;;;;;;5066757;28;20020;-83
2024/03/18 11:00:52;;;;;;;18.92;8.77;;;;;;;;;;5084930;28;20024;-83
2024/03/18 11:03:24;;;;;;;19.10;8.73;;;;;;;;;;5074683;28;20055;-81
2024/03/18 11:05:58;;;;;;;19.27;8.80;;;;;;;;;;5083977;28;20471;-81
2024/03/18 11:08:25;;;;;;;18.02;8.85;;;;;;;;;;5090492;28;20479;-81
2024/03/18 11:10:55;;;;;;;19.58;8.10;;;;;;;;;;5057943;28;20115;-80
2024/03/18 11:13:32;;;;;;;16.55;8.13;;;;;;;;;;5075535;28;20060;-85
2024/03/18 11:16:03;;;;;;;18.27;8.20;;;;;;;;;;5075366;28;20024;-86
2024/03/18 11:18:29;;;;;;;18.25;8.35;;;;;;;;;;5086927;28;20099;-87
2024/03/18 11:21:02;;;;;;;18.08;8.85;;;;;;;;;;5071915;28;20119;-86
2024/03/18 11:23:30;;;;;;;17.40;8.20;;;;;;;;;;5073096;28;20025;-86
2024/03/18 11:26:04;;;;;;;17.48;8.57;;;;;;;;;;5067249;28;20035;-85
2024/03/18 11:28:41;;;;;;;19.30;8.00;;;;;;;;;;5072536;28;20028;-86
2024/03/18 11:31:08;;;;;;;18.65;7.63;;;;;;;;;;5067780;28;20090;-86
2024/03/18 11:33:38;;;;;;;21.58;7.65;;;;;;;;;;5075728;28;20544;-85
2024/03/18 11:36:07;;;;;;;16.08;7.57;;;;;;;;;;5071115;28;20149;-86
2024/03/18 11:38:34;;;;;;;17.42;7.30;;;;;;;;;;5076589;28;20031;-86
2024/03/18 11:41:02;;;;;;;17.92;7.82;;;;;;;;;;5090814;28;20020;-86
2024/03/18 11:43:28;;;;;;;25.83;8.93;;;;;;;;;;5093573;28;20027;-86
2024/03/18 11:45:54;;;;;;;19.38;8.77;;;;;;;;;;5058042;28;20078;-86
2024/03/18 11:48:19;;;;;;;18.52;8.57;;;;;;;;;;5068655;28;20020;-86
2024/03/18 11:50:46;;;;;;;15.05;8.77;;;;;;;;;;5076891;28;20028;-85
2024/03/18 11:53:16;;;;;;;20.25;10.00;;;;;;;;;;5093805;28;20383;-85
2024/03/18 11:55:41;;;;;;;17.95;9.00;;;;;;;;;;5075766;28;20483;-86
2024/03/18 11:58:12;;;;;;;21.02;9.45;;;;;;;;;;5067874;28;20016;-85
2024/03/18 12:00:37;;;;;;;18.38;8.13;;;;;;;;;;5087391;28;20021;-85
2024/03/18 12:03:11;;;;;;;18.58;9.23;;;;;;;;;;5091336;28;20039;-85
2024/03/18 12:05:42;;;;;;;18.20;8.88;;;;;;;;;;5064526;28;20020;-85
2024/03/18 12:08:20;;;;;;;19.77;9.70;;;;;;;;;;5082062;28;20023;-85
2024/03/18 12:10:53;;;;;;;19.00;9.25;;;;;;;;;;5093218;28;20035;-85
2024/03/18 12:13:24;;;;;;;20.17;8.50;;;;;;;;;;5064926;28;20013;-86
2024/03/18 12:15:50;;;;;;;21.50;9.30;;;;;;;;;;5072877;28;20028;-85
2024/03/18 12:18:16;;;;;;;18.40;8.43;;;;;;;;;;5093576;28;20020;-86
2024/03/18 12:20:41;;;;;;;18.52;7.53;;;;;;;;;;5078571;28;20042;-86
2024/03/18 12:23:16;;;;;;;18.38;8.77;;;;;;;;;;5084485;28;20101;-85
2024/03/18 12:28:47;;;;;;;15.40;7.65;;;;;;;;;;5084670;28;20196;-85
2024/03/18 12:31:12;;;;;;;20.08;8.52;;;;;;;;;;5057747;28;20028;-85
2024/03/18 12:33:40;;;;;;;16.45;7.60;;;;;;;;;;5075611;28;20047;-83
2024/03/18 12:36:14;;;;;;;15.18;7.60;;;;;;;;;;5067079;28;20026;-83
2024/03/18 12:38:50;;;;;;;16.38;6.60;;;;;;;;;;5085516;28;20029;-83
2024/03/18 12:41:18;;;;;;;13.10;6.45;;;;;;;;;;5083404;28;20030;-84
2024/03/18 12:43:44;;;;;;;10.95;4.43;;;;;;;;;;5070739;28;20024;-84
2024/03/18 12:46:19;;;;;;;12.75;4.78;;;;;;;;;;5044085;28;20501;-84
2024/03/18 12:48:46;;;;;;;14.60;5.68;;;;;;;;;;5084779;28;20028;-83
2024/03/18 12:51:17;;;;;;;13.93;5.57;;;;;;;;;;5091834;28;20106;-86
2024/03/18 12:53:44;;;;;;;12.82;4.85;;;;;;;;;;5067285;28;20471;-86
2024/03/18 12:56:10;;;;;;;11.50;4.93;;;;;;;;;;5080914;28;20038;-86
2024/03/18 12:58:35;;;;;;;14.27;5.05;;;;;;;;;;5086069;28;20559;-85
2024/03/18 13:01:09;;;;;;;10.77;5.10;;;;;;;;;;5092851;28;20047;-83
2024/03/18 13:03:35;;;;;;;10.85;4.30;;;;;;;;;;5075807;28;20081;-83
2024/03/18 13:06:03;;;;;;;13.98;4.15;;;;;;;;;;5089632;28;20031;-83
2024/03/18 13:08:29;;;;;;;10.68;3.60;;;;;;;;;;5083421;28;20106;-83
2024/03/18 13:10:55;;;;;;;12.52;4.03;;;;;;;;;;5073689;28;20070;-84
2024/03/18 13:13:30;;;;;;;11.75;4.10;;;;;;;;;;5072637;28;20081;-84
2024/03/18 13:15:57;;;;;;;10.68;3.78;;;;;;;;;;5075608;28;20035;-84
2024/03/18 13:18:25;;;;;;;11.88;4.20;;;;;;;;;;5076091;28;20424;-83
2024/03/18 13:20:51;;;;;;;11.38;3.90;;;;;;;;;;5075186;28;20482;-83
2024/03/18 13:23:20;;;;;;;11.32;3.83;;;;;;;;;;5090291;28;20024;-83
2024/03/18 13:25:52;;;;;;;14.75;4.35;;;;;;;;;;5056218;28;20039;-84
2024/03/18 13:28:18;;;;;;;13.67;3.90;;;;;;;;;;5067190;28;20117;-83
2024/03/18 13:30:46;;;;;;;9.68;3.88;;;;;;;;;;5075346;28;20024;-84
2024/03/18 13:33:15;;;;;;;13.68;4.07;;;;;;;;;;5076935;28;20158;-83
2024/03/18 13:35:42;;;;;;;14.60;3.80;;;;;;;;;;5063249;28;20510;-83
2024/03/18 13:38:07;;;;;;;10.52;4.03;;;;;;;;;;5069828;28;20032;-83
2024/03/18 13:40:36;;;;;;;11.50;3.50;;;;;;;;;;5073369;28;20387;-83
2024/03/18 13:43:02;;;;;;;10.50;3.33;;;;;;;;;;5074919;28;20099;-84
2024/03/18 13:45:27;;;;;;;9.55;3.45;;;;;;;;;;5069915;28;20124;-85
2024/03/18 13:47:53;;;;;;;8.27;3.22;;;;;;;;;;5091168;28;20113;-86
2024/03/18 13:50:24;;;;;;;11.45;3.30;;;;;;;;;;5087288;28;20036;-85
2024/03/18 13:52:50;;;;;;;9.82;3.03;;;;;;;;;;5089356;28;20031;-85
2024/03/18 13:55:16;;;;;;;12.00;3.30;;;;;;;;;;5078444;28;20066;-85
2024/03/18 13:57:41;;;;;;;12.02;3.42;;;;;;;;;;5073097;28;20051;-85
2024/03/18 14:00:10;;;;;;;8.98;2.88;;;;;;;;;;5083757;28;20025;-85
2024/03/18 14:02:37;;;;;;;10.80;2.30;;;;;;;;;;5089878;28;20077;-85
2024/03/18 14:05:02;;;;;;;13.38;3.17;;;;;;;;;;5081862;28;20032;-85
2024/03/18 14:07:28;;;;;;;9.95;2.20;;;;;;;;;;5057405;28;20021;-82
2024/03/18 14:09:55;;;;;;;10.23;2.35;;;;;;;;;;5086775;28;20091;-83
2024/03/18 14:12:21;;;;;;;8.77;2.83;;;;;;;;;;5066577;28;20491;-82
2024/03/18 14:14:47;;;;;;;6.97;2.13;;;;;;;;;;5079517;28;20536;-83
2024/03/18 14:17:13;;;;;;;10.25;2.20;;;;;;;;;;5087898;28;20504;-82
2024/03/18 14:19:39;;;;;;;8.55;2.38;;;;;;;;;;5073203;28;20026;-82
2024/03/18 14:22:07;;;;;;;10.88;2.10;;;;;;;;;;5091436;28;20106;-83
2024/03/18 14:24:32;;;;;;;8.70;2.00;;;;;;;;;;5092439;28;20036;-85
2024/03/18 14:26:58;;;;;;;7.57;2.33;;;;;;;;;;5061772;28;20407;-86
2024/03/18 14:29:25;;;;;;;7.00;2.30;;;;;;;;;;5059341;28;20103;-85
2024/03/18 14:31:50;;;;;;;10.48;2.10;;;;;;;;;;5083791;28;20080;-86
2024/03/18 14:34:16;;;;;;;7.07;2.17;;;;;;;;;;5054667;28;20021;-85
2024/03/18 14:36:43;;;;;;;6.53;1.85;;;;;;;;;;5069792;28;20084;-85